createdAt,value
2023-04-09T00:00:32.923Z,0.02
2023-04-09T00:01:35.178Z,0.02
2023-04-09T00:02:34.496Z,0.02
2023-04-09T00:03:32.904Z,0.02
2023-04-09T00:04:33.081Z,0.06
2023-04-09T00:05:34.877Z,0.02
2023-04-09T00:06:33.652Z,0.01
2023-04-09T00:07:32.917Z,0.00
2023-04-09T00:08:34.181Z,0.00
2023-04-09T00:09:34.496Z,0.02
2023-04-09T00:10:32.780Z,0.02
2023-04-09T00:11:34.036Z,0.02
2023-04-09T00:12:33.527Z,0.00
2023-04-09T00:13:39.201Z,0.00
2023-04-09T00:14:33.908Z,0.02
2023-04-09T00:15:34.186Z,0.00
2023-04-09T00:16:34.572Z,0.00
2023-04-09T00:17:33.869Z,0.00
2023-04-09T00:18:34.061Z,0.02
2023-04-09T00:19:33.367Z,0.00
2023-04-09T00:20:32.626Z,0.02
2023-04-09T00:21:33.886Z,0.02
2023-04-09T00:22:34.532Z,0.02
2023-04-09T00:23:32.460Z,0.00
2023-04-09T00:24:32.764Z,0.00
2023-04-09T00:25:34.011Z,0.05
2023-04-09T00:26:33.348Z,0.02
2023-04-09T00:27:32.557Z,0.02
2023-04-09T00:28:32.913Z,0.00
2023-04-09T00:29:34.100Z,0.00
2023-04-09T00:30:32.427Z,0.02
2023-04-09T00:31:32.692Z,0.00
2023-04-09T00:32:33.941Z,0.02
2023-04-09T00:33:34.216Z,0.02
2023-04-09T00:34:32.511Z,0.00
2023-04-09T00:35:32.844Z,0.02
2023-04-09T00:36:34.049Z,0.06
2023-04-09T00:37:32.338Z,0.01
2023-04-09T00:38:32.649Z,0.02
2023-04-09T00:39:33.910Z,0.00
2023-04-09T00:40:32.232Z,0.02
2023-04-09T00:41:32.570Z,0.02
2023-04-09T00:42:32.792Z,0.00
2023-04-09T00:43:33.152Z,0.00
2023-04-09T00:44:32.437Z,0.00
2023-04-09T00:45:33.751Z,0.00
2023-04-09T00:46:33.057Z,0.00
2023-04-09T00:48:32.614Z,0.00
2023-04-09T00:49:32.917Z,0.02
2023-04-09T00:50:32.184Z,0.02
2023-04-09T00:51:32.527Z,0.02
2023-04-09T00:52:32.845Z,0.01
2023-04-09T00:53:32.042Z,0.00
2023-04-09T00:54:32.375Z,0.02
2023-04-09T00:55:32.634Z,0.00
2023-04-09T00:56:33.874Z,0.02
2023-04-09T00:57:32.168Z,0.00
2023-04-09T00:58:33.483Z,0.02
2023-04-09T00:59:32.780Z,0.02
2023-04-09T01:00:32.057Z,0.00
2023-04-09T01:01:32.491Z,0.00
2023-04-09T01:02:32.727Z,0.01
2023-04-09T01:03:31.998Z,0.00
2023-04-09T01:04:32.281Z,0.02
2023-04-09T01:05:32.564Z,0.04
2023-04-09T01:06:32.864Z,0.00
2023-04-09T01:07:32.144Z,0.06
2023-04-09T01:08:32.434Z,0.02
2023-04-09T01:09:33.733Z,0.00
2023-04-09T01:10:32.045Z,0.00
2023-04-09T01:11:32.392Z,0.02
2023-04-09T01:12:32.684Z,0.00
2023-04-09T01:13:31.949Z,0.00
2023-04-09T01:14:33.210Z,0.01
2023-04-09T01:15:32.566Z,0.02
2023-04-09T01:16:31.875Z,0.00
2023-04-09T01:17:32.297Z,0.00
2023-04-09T01:18:32.479Z,0.02
2023-04-09T01:19:31.743Z,0.02
2023-04-09T01:20:32.058Z,0.02
2023-04-09T01:21:32.362Z,0.02
2023-04-09T01:22:32.724Z,0.02
2023-04-09T01:23:31.850Z,0.02
2023-04-09T01:24:33.023Z,0.00
2023-04-09T01:25:32.372Z,0.00
2023-04-09T01:26:31.574Z,0.02
2023-04-09T01:27:31.838Z,0.00
2023-04-09T01:28:32.446Z,0.00
2023-04-09T01:29:33.319Z,0.00
2023-04-09T01:30:32.653Z,0.02
2023-04-09T01:31:31.855Z,0.00
2023-04-09T01:32:32.204Z,0.00
2023-04-09T01:33:32.390Z,0.02
2023-04-09T01:34:31.838Z,0.02
2023-04-09T01:35:31.909Z,0.02
2023-04-09T01:36:32.134Z,0.02
2023-04-09T01:37:33.377Z,0.02
2023-04-09T01:38:31.664Z,0.00
2023-04-09T01:39:31.957Z,0.02
2023-04-09T01:40:33.224Z,0.00
2023-04-09T01:41:31.457Z,0.00
2023-04-09T01:42:31.656Z,0.06
2023-04-09T01:43:31.924Z,0.02
2023-04-09T01:44:32.185Z,0.02
2023-04-09T01:45:31.525Z,0.02
2023-04-09T01:46:31.726Z,0.00
2023-04-09T01:47:31.983Z,0.02
2023-04-09T01:48:32.161Z,0.00
2023-04-09T01:49:31.390Z,0.02
2023-04-09T01:50:31.694Z,0.00
2023-04-09T01:51:31.936Z,0.02
2023-04-09T01:52:32.194Z,0.02
2023-04-09T01:53:31.430Z,0.01
2023-04-09T01:54:31.688Z,0.00
2023-04-09T01:55:31.984Z,0.02
2023-04-09T01:56:31.235Z,0.02
2023-04-09T01:57:31.507Z,0.02
2023-04-09T01:58:31.779Z,0.01
2023-04-09T01:59:32.053Z,0.02
2023-04-09T02:00:31.295Z,0.00
2023-04-09T02:01:31.691Z,0.00
2023-04-09T02:02:32.002Z,0.01
2023-04-09T02:03:32.182Z,0.00
2023-04-09T02:04:31.453Z,0.01
2023-04-09T02:05:31.718Z,0.01
2023-04-09T02:06:33.856Z,0.02
2023-04-09T02:07:31.264Z,0.02
2023-04-09T02:08:31.554Z,0.01
2023-04-09T02:09:31.851Z,0.00
2023-04-09T02:10:31.073Z,0.02
2023-04-09T02:11:31.384Z,0.00
2023-04-09T02:12:31.705Z,0.02
2023-04-09T02:13:31.906Z,0.00
2023-04-09T02:14:32.127Z,0.00
2023-04-09T02:15:31.481Z,0.02
2023-04-09T02:16:31.741Z,0.02
2023-04-09T02:17:31.994Z,0.02
2023-04-09T02:18:31.370Z,0.01
2023-04-09T02:19:31.529Z,0.00
2023-04-09T02:21:31.099Z,0.00
2023-04-09T02:22:31.360Z,0.02
2023-04-09T02:23:31.640Z,0.00
2023-04-09T02:24:30.910Z,0.00
2023-04-09T02:25:31.189Z,0.02
2023-04-09T02:26:31.414Z,0.00
2023-04-09T02:27:31.746Z,0.01
2023-04-09T02:28:30.989Z,0.00
2023-04-09T02:29:31.663Z,0.00
2023-04-09T02:30:31.564Z,0.02
2023-04-09T02:31:30.831Z,0.00
2023-04-09T02:32:31.066Z,0.02
2023-04-09T02:33:31.340Z,0.06
2023-04-09T02:34:31.609Z,0.02
2023-04-09T02:35:30.914Z,0.02
2023-04-09T02:36:31.213Z,0.02
2023-04-09T02:37:31.450Z,0.02
2023-04-09T02:38:30.707Z,0.01
2023-04-09T02:39:31.033Z,0.02
2023-04-09T02:40:31.350Z,0.02
2023-04-09T02:41:30.544Z,0.00
2023-04-09T02:42:30.885Z,0.02
2023-04-09T02:43:31.149Z,0.02
2023-04-09T02:44:31.478Z,0.00
2023-04-09T02:45:30.685Z,0.00
2023-04-09T02:46:31.004Z,0.02
2023-04-09T02:47:32.207Z,0.02
2023-04-09T02:48:30.490Z,0.01
2023-04-09T02:49:30.806Z,0.00
2023-04-09T02:50:31.133Z,0.00
2023-04-09T02:51:31.411Z,0.02
2023-04-09T02:52:30.656Z,0.02
2023-04-09T02:53:30.976Z,0.00
2023-04-09T02:54:31.276Z,0.00
2023-04-09T02:55:31.513Z,0.00
2023-04-09T02:56:31.873Z,0.00
2023-04-09T02:57:33.240Z,0.00
2023-04-09T02:58:31.426Z,0.02
2023-04-09T02:59:31.702Z,0.06
2023-04-09T03:00:31.074Z,0.02
2023-04-09T03:01:30.383Z,0.00
2023-04-09T03:02:30.734Z,0.00
2023-04-09T03:03:31.190Z,0.01
2023-04-09T03:04:31.227Z,0.00
2023-04-09T03:05:30.563Z,0.02
2023-04-09T03:06:30.819Z,0.02
2023-04-09T03:07:31.109Z,0.01
2023-04-09T03:08:30.384Z,0.00
2023-04-09T03:09:30.771Z,0.02
2023-04-09T03:10:31.959Z,0.00
2023-04-09T03:11:30.275Z,0.00
2023-04-09T03:12:30.567Z,0.02
2023-04-09T03:13:30.871Z,0.01
2023-04-09T03:14:30.177Z,0.02
2023-04-09T03:15:30.466Z,0.02
2023-04-09T03:16:30.776Z,0.02
2023-04-09T03:17:31.067Z,0.00
2023-04-09T03:18:30.284Z,0.00
2023-04-09T03:19:31.613Z,0.02
2023-04-09T03:20:30.929Z,0.02
2023-04-09T03:21:30.200Z,0.02
2023-04-09T03:22:31.443Z,0.02
2023-04-09T03:23:30.796Z,0.02
2023-04-09T03:24:30.079Z,0.00
2023-04-09T03:25:30.392Z,0.02
2023-04-09T03:26:30.692Z,0.00
2023-04-09T03:27:30.964Z,0.02
2023-04-09T03:28:30.163Z,0.00
2023-04-09T03:29:30.480Z,0.01
2023-04-09T03:30:30.790Z,0.02
2023-04-09T03:31:30.118Z,0.02
2023-04-09T03:32:30.738Z,0.00
2023-04-09T03:33:30.629Z,0.02
2023-04-09T03:34:29.880Z,0.00
2023-04-09T03:35:31.183Z,0.02
2023-04-09T03:36:31.425Z,0.01
2023-04-09T03:37:30.759Z,0.00
2023-04-09T03:38:30.067Z,0.00
2023-04-09T03:39:30.325Z,0.02
2023-04-09T03:40:30.611Z,0.01
2023-04-09T03:41:29.875Z,0.04
2023-04-09T03:42:30.186Z,0.00
2023-04-09T03:43:30.779Z,0.02
2023-04-09T03:44:29.773Z,0.01
2023-04-09T03:45:30.091Z,0.02
2023-04-09T03:46:30.437Z,0.02
2023-04-09T03:47:30.895Z,0.02
2023-04-09T03:48:29.892Z,0.00
2023-04-09T03:49:30.257Z,0.01
2023-04-09T03:50:30.514Z,0.01
2023-04-09T03:51:30.685Z,0.00
2023-04-09T03:52:30.002Z,0.02
2023-04-09T03:53:30.303Z,0.00
2023-04-09T03:54:30.635Z,0.02
2023-04-09T03:55:29.797Z,0.00
2023-04-09T03:56:30.142Z,0.02
2023-04-09T03:57:30.397Z,0.00
2023-04-09T03:58:29.652Z,0.00
2023-04-09T03:59:29.956Z,0.02
2023-04-09T04:00:30.257Z,0.02
2023-04-09T04:01:30.493Z,0.02
2023-04-09T04:02:29.851Z,0.02
2023-04-09T04:03:30.268Z,0.01
2023-04-09T04:04:31.419Z,0.02
2023-04-09T04:05:30.548Z,0.02
2023-04-09T04:06:29.930Z,0.01
2023-04-09T04:07:31.177Z,0.05
2023-04-09T04:08:30.370Z,0.01
2023-04-09T04:09:29.694Z,0.01
2023-04-09T04:10:30.953Z,0.03
2023-04-09T04:11:30.433Z,0.01
2023-04-09T04:12:29.540Z,0.02
2023-04-09T04:13:29.900Z,0.02
2023-04-09T04:14:31.084Z,0.03
2023-04-09T04:15:29.406Z,0.10
2023-04-09T04:16:29.711Z,0.04
2023-04-09T04:17:29.978Z,0.13
2023-04-09T04:18:30.236Z,0.05
2023-04-09T04:19:29.524Z,0.07
2023-04-09T04:20:29.795Z,0.08
2023-04-09T04:21:30.073Z,0.11
2023-04-09T04:22:29.340Z,0.10
2023-04-09T04:23:29.672Z,0.13
2023-04-09T04:24:29.940Z,0.16
2023-04-09T04:25:29.178Z,0.20
2023-04-09T04:26:29.510Z,0.23
2023-04-09T04:27:29.773Z,0.28
2023-04-09T04:28:30.084Z,0.33
2023-04-09T04:29:29.347Z,0.40
2023-04-09T04:30:29.604Z,0.51
2023-04-09T04:31:29.966Z,0.60
2023-04-09T04:32:29.152Z,0.70
2023-04-09T04:33:29.416Z,0.83
2023-04-09T04:34:29.735Z,1.00
2023-04-09T04:35:30.043Z,1.16
2023-04-09T04:36:29.294Z,1.37
2023-04-09T04:37:29.575Z,1.59
2023-04-09T04:38:29.891Z,1.88
2023-04-09T04:39:29.129Z,2.16
2023-04-09T04:40:29.424Z,2.51
2023-04-09T04:41:29.743Z,2.90
2023-04-09T04:42:29.014Z,3.28
2023-04-09T04:43:29.300Z,3.74
2023-04-09T04:44:29.628Z,4.24
2023-04-09T04:45:29.959Z,4.77
2023-04-09T04:46:29.129Z,5.34
2023-04-09T04:47:29.537Z,5.95
2023-04-09T04:48:29.705Z,6.62
2023-04-09T04:49:28.959Z,7.35
2023-04-09T04:50:29.286Z,8.13
2023-04-09T04:51:29.557Z,8.92
2023-04-09T04:52:28.810Z,9.76
2023-04-09T04:53:29.133Z,10.61
2023-04-09T04:54:29.416Z,11.48
2023-04-09T04:55:29.753Z,12.40
2023-04-09T04:56:28.937Z,13.33
2023-04-09T04:57:29.252Z,14.38
2023-04-09T04:58:29.547Z,15.55
2023-04-09T04:59:28.826Z,16.85
2023-04-09T05:00:29.081Z,18.21
2023-04-09T05:01:29.823Z,19.56
2023-04-09T05:02:29.792Z,20.90
2023-04-09T05:03:28.983Z,22.12
2023-04-09T05:04:29.234Z,23.42
2023-04-09T05:05:29.530Z,24.77
2023-04-09T05:06:28.781Z,26.39
2023-04-09T05:07:29.194Z,28.13
2023-04-09T05:08:29.361Z,29.96
2023-04-09T05:09:28.628Z,31.70
2023-04-09T05:10:28.949Z,33.37
2023-04-09T05:11:29.241Z,35.14
2023-04-09T05:12:29.553Z,36.98
2023-04-09T05:13:29.728Z,38.83
2023-04-09T05:14:30.047Z,40.46
2023-04-09T05:15:29.380Z,42.16
2023-04-09T05:16:28.613Z,44.92
2023-04-09T05:17:28.977Z,49.79
2023-04-09T05:18:29.348Z,53.09
2023-04-09T05:19:28.467Z,56.82
2023-04-09T05:20:28.777Z,59.82
2023-04-09T05:21:29.099Z,60.99
2023-04-09T05:22:29.382Z,62.24
2023-04-09T05:23:28.667Z,62.75
2023-04-09T05:24:29.003Z,62.75
2023-04-09T05:25:29.307Z,60.65
2023-04-09T05:26:28.528Z,59.89
2023-04-09T05:27:28.845Z,60.59
2023-04-09T05:28:29.148Z,62.14
2023-04-09T05:29:28.454Z,63.71
2023-04-09T05:30:28.754Z,65.76
2023-04-09T05:31:29.040Z,68.21
2023-04-09T05:32:29.444Z,71.03
2023-04-09T05:33:28.655Z,71.16
2023-04-09T05:34:28.954Z,72.92
2023-04-09T05:35:29.294Z,74.79
2023-04-09T05:36:28.546Z,76.53
2023-04-09T05:37:28.859Z,79.09
2023-04-09T05:38:29.201Z,81.60
2023-04-09T05:39:28.420Z,83.91
2023-04-09T05:40:28.754Z,85.99
2023-04-09T05:41:29.071Z,88.19
2023-04-09T05:42:28.303Z,90.74
2023-04-09T05:43:28.622Z,93.26
2023-04-09T05:44:28.952Z,95.98
2023-04-09T05:45:28.139Z,98.55
2023-04-09T05:46:28.517Z,100.54
2023-04-09T05:47:28.813Z,102.77
2023-04-09T05:48:30.103Z,105.16
2023-04-09T05:49:28.379Z,107.82
2023-04-09T05:50:29.023Z,111.03
2023-04-09T05:51:29.000Z,113.72
2023-04-09T05:52:28.255Z,116.49
2023-04-09T05:53:28.578Z,119.18
2023-04-09T05:54:28.919Z,122.26
2023-04-09T05:55:28.154Z,125.87
2023-04-09T05:56:28.538Z,130.23
2023-04-09T05:57:28.732Z,135.00
2023-04-09T05:58:28.988Z,139.41
2023-04-09T05:59:28.328Z,143.19
2023-04-09T06:00:28.617Z,146.45
2023-04-09T06:01:28.927Z,149.66
2023-04-09T06:02:28.302Z,155.37
2023-04-09T06:03:29.613Z,158.36
2023-04-09T06:04:28.848Z,160.62
2023-04-09T06:05:28.076Z,162.22
2023-04-09T06:06:28.413Z,164.80
2023-04-09T06:07:29.057Z,168.13
2023-04-09T06:08:28.014Z,171.23
2023-04-09T06:09:28.312Z,175.54
2023-04-09T06:10:28.650Z,180.82
2023-04-09T06:11:27.924Z,185.47
2023-04-09T06:12:29.131Z,189.38
2023-04-09T06:13:28.617Z,192.49
2023-04-09T06:14:28.759Z,196.06
2023-04-09T06:15:28.057Z,200.38
2023-04-09T06:16:28.323Z,205.56
2023-04-09T06:17:28.623Z,211.56
2023-04-09T06:18:27.898Z,217.80
2023-04-09T06:19:28.269Z,225.50
2023-04-09T06:20:28.511Z,237.51
2023-04-09T06:21:27.750Z,243.44
2023-04-09T06:22:28.028Z,268.43
2023-04-09T06:23:27.778Z,360.53
2023-04-09T06:24:28.070Z,304.75
2023-04-09T06:25:28.373Z,272.47
2023-04-09T06:26:28.593Z,282.38
2023-04-09T06:27:27.819Z,304.71
2023-04-09T06:28:28.126Z,307.30
2023-04-09T06:29:28.674Z,451.76
2023-04-09T06:30:28.073Z,399.11
2023-04-09T06:31:28.449Z,390.33
2023-04-09T06:32:28.606Z,495.08
2023-04-09T06:33:27.838Z,565.84
2023-04-09T06:34:28.065Z,539.58
2023-04-09T06:35:29.340Z,513.86
2023-04-09T06:36:28.567Z,480.38
2023-04-09T06:37:28.023Z,601.49
2023-04-09T06:38:29.174Z,618.45
2023-04-09T06:39:28.413Z,604.80
2023-04-09T06:40:27.736Z,625.62
2023-04-09T06:41:28.060Z,631.90
2023-04-09T06:42:28.444Z,630.37
2023-04-09T06:43:28.584Z,629.26
2023-04-09T06:44:28.816Z,625.58
2023-04-09T06:45:29.138Z,618.81
2023-04-09T06:46:27.439Z,611.72
2023-04-09T06:47:28.652Z,603.52
2023-04-09T06:48:28.028Z,599.74
2023-04-09T06:49:29.296Z,596.54
2023-04-09T06:50:27.593Z,596.41
2023-04-09T06:51:27.840Z,596.38
2023-04-09T06:52:28.100Z,598.67
2023-04-09T06:53:27.498Z,601.44
2023-04-09T06:54:27.691Z,603.89
2023-04-09T06:55:28.911Z,607.10
2023-04-09T06:56:28.212Z,611.49
2023-04-09T06:57:28.421Z,615.25
2023-04-09T06:58:28.723Z,620.55
2023-04-09T06:59:28.061Z,625.38
2023-04-09T07:00:28.315Z,628.41
2023-04-09T07:01:27.643Z,631.89
2023-04-09T07:02:28.217Z,636.52
2023-04-09T07:03:29.411Z,641.78
2023-04-09T07:04:28.435Z,646.24
2023-04-09T07:05:27.698Z,648.78
2023-04-09T07:06:27.935Z,654.75
2023-04-09T07:07:27.248Z,659.13
2023-04-09T07:08:28.463Z,662.35
2023-04-09T07:09:28.720Z,665.71
2023-04-09T07:10:29.022Z,671.52
2023-04-09T07:11:27.510Z,675.50
2023-04-09T07:12:28.486Z,677.61
2023-04-09T07:14:27.028Z,684.18
2023-04-09T07:15:28.234Z,686.60
2023-04-09T07:16:28.551Z,690.30
2023-04-09T07:17:28.755Z,694.97
2023-04-09T07:18:27.001Z,697.63
2023-04-09T07:19:28.199Z,701.10
2023-04-09T07:20:27.517Z,704.79
2023-04-09T07:21:27.785Z,706.57
2023-04-09T07:22:27.042Z,710.15
2023-04-09T07:23:28.365Z,713.80
2023-04-09T07:24:27.669Z,717.53
2023-04-09T07:25:26.904Z,719.97
2023-04-09T07:26:28.071Z,723.84
2023-04-09T07:27:27.429Z,726.27
2023-04-09T07:28:27.679Z,727.97
2023-04-09T07:29:26.862Z,732.69
2023-04-09T07:30:28.140Z,735.93
2023-04-09T07:31:28.461Z,738.94
2023-04-09T07:32:28.913Z,740.42
2023-04-09T07:33:27.870Z,744.26
2023-04-09T07:34:28.107Z,748.17
2023-04-09T07:35:28.362Z,749.66
2023-04-09T07:36:28.682Z,754.26
2023-04-09T07:37:27.941Z,754.61
2023-04-09T07:38:28.235Z,756.51
2023-04-09T07:39:28.404Z,761.25
2023-04-09T07:40:27.646Z,763.90
2023-04-09T07:41:27.030Z,766.42
2023-04-09T07:42:28.310Z,770.51
2023-04-09T07:43:28.796Z,772.94
2023-04-09T07:44:26.707Z,775.04
2023-04-09T07:45:26.980Z,779.34
2023-04-09T07:46:27.289Z,783.69
2023-04-09T07:47:27.577Z,787.71
2023-04-09T07:48:26.799Z,789.65
2023-04-09T07:49:27.052Z,791.45
2023-04-09T07:50:27.271Z,792.67
2023-04-09T07:51:26.467Z,796.28
2023-04-09T07:52:26.716Z,796.49
2023-04-09T07:53:26.938Z,802.13
2023-04-09T07:54:27.211Z,803.91
2023-04-09T07:55:26.475Z,806.64
2023-04-09T07:56:26.706Z,809.54
2023-04-09T07:57:26.958Z,809.79
2023-04-09T07:58:27.251Z,811.91
2023-04-09T07:59:27.408Z,815.54
2023-04-09T08:00:27.701Z,818.18
2023-04-09T08:01:26.974Z,820.55
2023-04-09T08:02:27.460Z,823.50
2023-04-09T08:03:26.651Z,828.70
2023-04-09T08:04:26.767Z,831.29
2023-04-09T08:05:27.982Z,832.98
2023-04-09T08:06:28.213Z,835.95
2023-04-09T08:07:26.424Z,840.13
2023-04-09T08:08:26.717Z,846.78
2023-04-09T08:09:26.961Z,853.49
2023-04-09T08:10:27.278Z,857.95
2023-04-09T08:11:26.643Z,858.37
2023-04-09T08:12:26.690Z,858.96
2023-04-09T08:13:27.872Z,864.52
2023-04-09T08:14:28.119Z,870.72
2023-04-09T08:15:26.385Z,874.26
2023-04-09T08:16:26.733Z,878.37
2023-04-09T08:17:26.919Z,882.41
2023-04-09T08:18:26.100Z,886.40
2023-04-09T08:19:27.298Z,896.03
2023-04-09T08:20:26.600Z,905.17
2023-04-09T08:21:26.852Z,908.81
2023-04-09T08:22:27.117Z,909.52
2023-04-09T08:23:26.253Z,917.68
2023-04-09T08:24:26.492Z,918.77
2023-04-09T08:25:26.734Z,920.63
2023-04-09T08:26:27.040Z,922.10
2023-04-09T08:27:26.132Z,925.67
2023-04-09T08:28:26.590Z,932.35
2023-04-09T08:29:26.593Z,942.62
2023-04-09T08:30:26.858Z,957.93
2023-04-09T08:31:26.140Z,971.73
2023-04-09T08:32:26.335Z,982.42
2023-04-09T08:33:26.542Z,991.64
2023-04-09T08:34:26.769Z,949.76
2023-04-09T08:35:25.925Z,724.36
2023-04-09T08:36:26.257Z,812.71
2023-04-09T08:37:26.361Z,1003.80
2023-04-09T08:38:26.587Z,923.12
2023-04-09T08:39:26.892Z,641.29
2023-04-09T08:40:26.026Z,741.56
2023-04-09T08:41:26.221Z,847.08
2023-04-09T08:42:26.508Z,825.58
2023-04-09T08:43:41.934Z,772.65
2023-04-09T08:44:26.880Z,1087.90
2023-04-09T08:45:26.214Z,1091.66
2023-04-09T08:46:26.467Z,726.39
2023-04-09T08:47:26.585Z,635.21
2023-04-09T08:48:25.842Z,1088.70
2023-04-09T08:49:25.988Z,1108.95
2023-04-09T08:50:26.178Z,1134.40
2023-04-09T08:51:26.456Z,718.10
2023-04-09T08:52:26.599Z,617.86
2023-04-09T08:53:25.779Z,1074.12
2023-04-09T08:54:25.986Z,1126.77
2023-04-09T08:55:26.228Z,1172.44
2023-04-09T08:56:26.428Z,1163.45
2023-04-09T08:57:25.676Z,1174.97
2023-04-09T08:58:25.811Z,1133.20
2023-04-09T08:59:26.053Z,1143.52
2023-04-09T09:00:26.243Z,1191.59
2023-04-09T09:01:26.549Z,1180.68
2023-04-09T09:02:25.752Z,1166.72
2023-04-09T09:03:25.964Z,1144.49
2023-04-09T09:04:27.153Z,725.56
2023-04-09T09:05:27.326Z,625.65
2023-04-09T09:06:25.505Z,615.39
2023-04-09T09:07:26.675Z,607.61
2023-04-09T09:08:26.008Z,572.32
2023-04-09T09:09:26.143Z,808.74
2023-04-09T09:10:27.350Z,607.02
2023-04-09T09:11:25.562Z,585.23
2023-04-09T09:12:26.067Z,1205.64
2023-04-09T09:13:26.119Z,1233.19
2023-04-09T09:14:26.307Z,1002.91
2023-04-09T09:15:26.405Z,1276.30
2023-04-09T09:16:25.685Z,920.23
2023-04-09T09:17:25.955Z,672.72
2023-04-09T09:18:26.140Z,1163.28
2023-04-09T09:19:25.346Z,1276.15
2023-04-09T09:20:26.530Z,1314.00
2023-04-09T09:21:26.748Z,692.79
2023-04-09T09:22:26.053Z,661.65
2023-04-09T09:23:25.208Z,657.84
2023-04-09T09:24:25.482Z,695.18
2023-04-09T09:25:25.897Z,1065.05
2023-04-09T09:26:26.812Z,1313.81
2023-04-09T09:27:26.121Z,1350.85
2023-04-09T09:28:25.269Z,1347.50
2023-04-09T09:29:25.503Z,1357.25
2023-04-09T09:30:25.763Z,726.12
2023-04-09T09:31:26.070Z,1313.10
2023-04-09T09:32:26.268Z,1348.43
2023-04-09T09:33:25.279Z,1355.93
2023-04-09T09:34:25.553Z,1404.43
2023-04-09T09:35:25.750Z,1318.15
2023-04-09T09:36:26.001Z,1362.22
2023-04-09T09:37:25.136Z,685.87
2023-04-09T09:38:25.321Z,755.08
2023-04-09T09:39:25.543Z,677.86
2023-04-09T09:40:25.815Z,669.90
2023-04-09T09:41:27.006Z,1091.44
2023-04-09T09:42:25.223Z,668.36
2023-04-09T09:43:25.379Z,622.59
2023-04-09T09:44:25.591Z,624.82
2023-04-09T09:45:25.829Z,636.07
2023-04-09T09:46:25.045Z,1210.13
2023-04-09T09:47:25.348Z,987.59
2023-04-09T09:48:27.889Z,1125.30
2023-04-09T09:49:25.651Z,853.02
2023-04-09T09:50:25.815Z,693.86
2023-04-09T09:51:24.981Z,643.82
2023-04-09T09:52:25.216Z,638.50
2023-04-09T09:53:25.375Z,1329.23
2023-04-09T09:54:25.799Z,1390.61
2023-04-09T09:55:25.822Z,758.21
2023-04-09T09:56:25.009Z,708.32
2023-04-09T09:57:25.212Z,716.60
2023-04-09T09:58:26.413Z,731.34
2023-04-09T09:59:25.635Z,772.21
2023-04-09T10:00:25.022Z,913.09
2023-04-09T10:01:25.115Z,626.57
2023-04-09T10:02:25.308Z,624.82
2023-04-09T10:03:25.454Z,609.11
2023-04-09T10:04:25.704Z,691.87
2023-04-09T10:05:24.860Z,699.13
2023-04-09T10:06:25.158Z,664.59
2023-04-09T10:07:25.279Z,681.44
2023-04-09T10:08:25.478Z,712.51
2023-04-09T10:09:24.649Z,763.77
2023-04-09T10:10:24.831Z,927.42
2023-04-09T10:11:25.062Z,1596.66
2023-04-09T10:12:25.377Z,1567.49
2023-04-09T10:13:26.420Z,1503.27
2023-04-09T10:14:25.678Z,1455.07
2023-04-09T10:15:24.844Z,1438.53
2023-04-09T10:16:25.060Z,1423.73
2023-04-09T10:17:25.153Z,1413.36
2023-04-09T10:18:25.403Z,1380.67
2023-04-09T10:19:25.498Z,1367.05
2023-04-09T10:20:24.691Z,610.34
2023-04-09T10:21:24.792Z,598.19
2023-04-09T10:22:25.937Z,596.29
2023-04-09T10:23:25.184Z,608.68
2023-04-09T10:24:25.413Z,626.36
2023-04-09T10:25:24.485Z,643.49
2023-04-09T10:26:24.730Z,661.59
2023-04-09T10:27:24.892Z,675.09
2023-04-09T10:28:25.095Z,682.88
2023-04-09T10:29:26.119Z,690.82
2023-04-09T10:30:24.535Z,704.02
2023-04-09T10:31:24.690Z,728.94
2023-04-09T10:32:24.976Z,762.11
2023-04-09T10:33:25.104Z,836.58
2023-04-09T10:34:25.289Z,1372.03
2023-04-09T10:35:24.509Z,1128.06
2023-04-09T10:36:24.945Z,821.82
2023-04-09T10:37:24.919Z,905.33
2023-04-09T10:38:25.152Z,1047.03
2023-04-09T10:39:24.340Z,1492.56
2023-04-09T10:40:24.723Z,740.80
2023-04-09T10:41:24.793Z,689.61
2023-04-09T10:42:25.025Z,662.35
2023-04-09T10:43:24.199Z,650.88
2023-04-09T10:44:24.432Z,658.42
2023-04-09T10:45:24.593Z,676.08
2023-04-09T10:46:24.858Z,702.55
2023-04-09T10:47:25.083Z,708.61
2023-04-09T10:48:24.208Z,713.47
2023-04-09T10:49:24.501Z,711.77
2023-04-09T10:50:24.632Z,705.75
2023-04-09T10:51:24.869Z,698.06
2023-04-09T10:52:25.067Z,691.19
2023-04-09T10:53:24.310Z,686.18
2023-04-09T10:54:24.467Z,681.06
2023-04-09T10:55:24.725Z,677.22
2023-04-09T10:56:24.909Z,675.30
2023-04-09T10:57:24.122Z,679.65
2023-04-09T10:58:24.361Z,694.67
2023-04-09T10:59:24.496Z,715.81
2023-04-09T11:00:24.827Z,735.44
2023-04-09T11:01:24.918Z,743.80
2023-04-09T11:02:24.194Z,741.17
2023-04-09T11:03:24.574Z,749.26
2023-04-09T11:04:24.604Z,795.65
2023-04-09T11:05:24.882Z,905.24
2023-04-09T11:06:24.926Z,855.14
2023-04-09T11:07:26.144Z,855.23
2023-04-09T11:08:25.327Z,872.77
2023-04-09T11:09:25.522Z,853.21
2023-04-09T11:10:24.861Z,837.30
2023-04-09T11:11:23.966Z,824.21
2023-04-09T11:12:24.177Z,817.90
2023-04-09T11:13:24.382Z,829.93
2023-04-09T11:14:24.574Z,841.87
2023-04-09T11:15:23.731Z,850.76
2023-04-09T11:16:24.641Z,844.16
2023-04-09T11:17:24.186Z,822.95
2023-04-09T11:18:24.372Z,811.41
2023-04-09T11:19:24.615Z,785.34
2023-04-09T11:20:23.775Z,767.32
2023-04-09T11:21:24.006Z,751.63
2023-04-09T11:22:24.319Z,742.37
2023-04-09T11:23:24.469Z,738.70
2023-04-09T11:24:23.632Z,737.25
2023-04-09T11:25:23.903Z,736.80
2023-04-09T11:26:24.050Z,743.49
2023-04-09T11:27:24.308Z,750.80
2023-04-09T11:28:24.518Z,760.82
2023-04-09T11:29:23.642Z,770.48
2023-04-09T11:30:24.915Z,768.45
2023-04-09T11:31:24.127Z,796.67
2023-04-09T11:32:24.333Z,782.18
2023-04-09T11:33:24.541Z,771.50
2023-04-09T11:34:23.659Z,767.99
2023-04-09T11:35:23.903Z,765.25
2023-04-09T11:36:24.110Z,764.42
2023-04-09T11:37:24.287Z,770.55
2023-04-09T11:38:23.460Z,788.61
2023-04-09T11:39:23.691Z,801.13
2023-04-09T11:40:23.880Z,820.44
2023-04-09T11:41:25.067Z,835.17
2023-04-09T11:42:25.252Z,847.29
2023-04-09T11:43:23.467Z,866.55
2023-04-09T11:44:23.757Z,887.15
2023-04-09T11:45:23.962Z,900.41
2023-04-09T11:46:24.197Z,856.64
2023-04-09T11:47:23.428Z,820.68
2023-04-09T11:48:23.567Z,797.68
2023-04-09T11:49:23.808Z,783.32
2023-04-09T11:50:24.180Z,783.17
2023-04-09T11:51:24.205Z,791.11
2023-04-09T11:52:23.381Z,798.39
2023-04-09T11:53:23.599Z,799.54
2023-04-09T11:54:23.817Z,786.61
2023-04-09T11:55:24.028Z,780.30
2023-04-09T11:56:23.240Z,789.25
2023-04-09T11:57:23.425Z,805.14
2023-04-09T11:58:23.724Z,803.05
2023-04-09T11:59:23.828Z,970.47
2023-04-09T12:00:24.042Z,868.41
2023-04-09T12:01:23.203Z,823.53
2023-04-09T12:02:23.610Z,812.83
2023-04-09T12:03:23.860Z,798.86
2023-04-09T12:04:25.009Z,788.62
2023-04-09T12:05:24.967Z,781.84
2023-04-09T12:06:24.180Z,775.66
2023-04-09T12:07:24.319Z,789.73
2023-04-09T12:08:23.869Z,814.36
2023-04-09T12:09:24.791Z,912.80
2023-04-09T12:10:24.956Z,911.33
2023-04-09T12:11:24.145Z,952.54
2023-04-09T12:12:23.347Z,912.19
2023-04-09T12:13:23.557Z,884.20
2023-04-09T12:14:23.788Z,861.64
2023-04-09T12:15:23.987Z,862.16
2023-04-09T12:16:23.182Z,897.43
2023-04-09T12:17:23.380Z,899.74
2023-04-09T12:18:23.569Z,865.89
2023-04-09T12:19:24.765Z,878.71
2023-04-09T12:20:23.260Z,871.43
2023-04-09T12:21:23.196Z,912.90
2023-04-09T12:22:23.357Z,863.78
2023-04-09T12:23:23.592Z,836.25
2023-04-09T12:24:23.846Z,818.71
2023-04-09T12:25:22.951Z,817.78
2023-04-09T12:26:23.208Z,829.24
2023-04-09T12:27:23.401Z,862.55
2023-04-09T12:28:23.556Z,1006.88
2023-04-09T12:29:23.755Z,1558.51
2023-04-09T12:30:22.952Z,1103.69
2023-04-09T12:31:23.138Z,1083.12
2023-04-09T12:32:23.440Z,1343.90
2023-04-09T12:33:23.509Z,977.34
2023-04-09T12:34:23.745Z,980.82
2023-04-09T12:35:23.014Z,937.61
2023-04-09T12:36:23.143Z,917.60
2023-04-09T12:37:23.395Z,899.40
2023-04-09T12:38:23.684Z,978.01
2023-04-09T12:39:23.726Z,898.96
2023-04-09T12:40:23.970Z,883.82
2023-04-09T12:41:23.225Z,884.38
2023-04-09T12:42:24.415Z,897.76
2023-04-09T12:43:23.576Z,905.06
2023-04-09T12:44:22.868Z,1306.94
2023-04-09T12:45:23.070Z,804.40
2023-04-09T12:46:23.321Z,756.58
2023-04-09T12:47:23.637Z,725.62
2023-04-09T12:48:22.697Z,700.23
2023-04-09T12:49:22.865Z,679.92